sensor_id;sensor_type;location;lat;lon;timestamp;noise_LAeq;noise_LA_min;noise_LA_max;noise_LA01;noise_LA95
67900;Laerm;54700;51.796;10.956;2023-04-25T00:02:26;30.70;27.88;43.84;;
67900;Laerm;54700;51.796;10.956;2023-04-25T00:04:53;51.82;29.18;69.69;;
67900;Laerm;54700;51.796;10.956;2023-04-25T00:07:26;31.69;28.60;47.32;;
67900;Laerm;54700;51.796;10.956;2023-04-25T00:09:54;32.28;28.92;41.49;;
67900;Laerm;54700;51.796;10.956;2023-04-25T00:12:21;37.33;30.49;49.80;;
67900;Laerm;54700;51.796;10.956;2023-04-25T00:14:49;39.90;31.41;52.90;;
67900;Laerm;54700;51.796;10.956;2023-04-25T00:17:16;46.91;31.18;62.86;;
67900;Laerm;54700;51.796;10.956;2023-04-25T00:19:44;34.29;29.29;54.99;;
67900;Laerm;54700;51.796;10.956;2023-04-25T00:22:11;33.05;29.08;46.01;;
67900;Laerm;54700;51.796;10.956;2023-04-25T00:24:39;50.23;29.66;67.32;;
67900;Laerm;54700;51.796;10.956;2023-04-25T00:27:06;33.38;28.74;43.65;;
67900;Laerm;54700;51.796;10.956;2023-04-25T00:29:33;31.53;28.98;46.53;;
67900;Laerm;54700;51.796;10.956;2023-04-25T00:32:02;34.16;30.34;41.32;;
67900;Laerm;54700;51.796;10.956;2023-04-25T00:34:29;37.77;30.79;45.06;;
67900;Laerm;54700;51.796;10.956;2023-04-25T00:36:56;38.74;31.58;47.84;;
67900;Laerm;54700;51.796;10.956;2023-04-25T00:39:24;49.51;30.47;65.14;;
67900;Laerm;54700;51.796;10.956;2023-04-25T00:41:51;35.79;30.59;48.89;;
67900;Laerm;54700;51.796;10.956;2023-04-25T00:44:20;35.07;29.57;44.98;;
67900;Laerm;54700;51.796;10.956;2023-04-25T00:46:48;50.15;29.83;65.37;;
67900;Laerm;54700;51.796;10.956;2023-04-25T00:49:16;34.81;29.57;47.59;;
67900;Laerm;54700;51.796;10.956;2023-04-25T00:51:45;33.95;29.39;49.90;;
67900;Laerm;54700;51.796;10.956;2023-04-25T00:54:13;32.91;28.96;41.12;;
67900;Laerm;54700;51.796;10.956;2023-04-25T00:56:41;54.37;30.64;71.69;;
67900;Laerm;54700;51.796;10.956;2023-04-25T00:59:09;50.87;29.39;69.86;;
67900;Laerm;54700;51.796;10.956;2023-04-25T01:01:37;50.59;28.88;69.54;;
67900;Laerm;54700;51.796;10.956;2023-04-25T01:04:05;32.58;28.12;45.51;;
67900;Laerm;54700;51.796;10.956;2023-04-25T01:06:34;31.32;28.50;41.25;;
67900;Laerm;54700;51.796;10.956;2023-04-25T01:09:04;31.56;28.87;43.30;;
67900;Laerm;54700;51.796;10.956;2023-04-25T01:11:36;50.16;29.39;67.24;;
67900;Laerm;54700;51.796;10.956;2023-04-25T01:14:03;31.50;28.79;39.98;;
67900;Laerm;54700;51.796;10.956;2023-04-25T01:16:30;30.71;28.29;41.15;;
67900;Laerm;54700;51.796;10.956;2023-04-25T01:18:59;31.03;28.34;39.79;;
67900;Laerm;54700;51.796;10.956;2023-04-25T01:21:27;31.34;28.35;43.34;;
67900;Laerm;54700;51.796;10.956;2023-04-25T01:23:56;31.62;27.93;45.43;;
67900;Laerm;54700;51.796;10.956;2023-04-25T01:26:24;32.04;28.71;45.35;;
67900;Laerm;54700;51.796;10.956;2023-04-25T01:28:51;32.67;28.16;46.50;;
67900;Laerm;54700;51.796;10.956;2023-04-25T01:31:19;34.58;28.84;42.61;;
67900;Laerm;54700;51.796;10.956;2023-04-25T01:33:47;47.96;29.15;65.45;;
67900;Laerm;54700;51.796;10.956;2023-04-25T01:36:17;39.39;28.21;57.93;;
67900;Laerm;54700;51.796;10.956;2023-04-25T01:38:49;33.26;28.54;49.23;;
67900;Laerm;54700;51.796;10.956;2023-04-25T01:41:19;31.79;28.82;39.91;;
67900;Laerm;54700;51.796;10.956;2023-04-25T01:43:48;52.38;28.55;69.44;;
67900;Laerm;54700;51.796;10.956;2023-04-25T01:46:16;32.88;28.55;41.87;;
67900;Laerm;54700;51.796;10.956;2023-04-25T01:48:43;33.20;29.45;42.62;;
67900;Laerm;54700;51.796;10.956;2023-04-25T01:51:10;48.58;28.85;68.23;;
67900;Laerm;54700;51.796;10.956;2023-04-25T01:53:38;54.65;29.57;69.38;;
67900;Laerm;54700;51.796;10.956;2023-04-25T01:56:07;54.50;29.33;68.81;;
67900;Laerm;54700;51.796;10.956;2023-04-25T01:58:34;32.54;29.50;40.88;;
67900;Laerm;54700;51.796;10.956;2023-04-25T02:01:04;35.58;30.95;43.08;;
67900;Laerm;54700;51.796;10.956;2023-04-25T02:03:31;33.23;29.98;46.17;;
67900;Laerm;54700;51.796;10.956;2023-04-25T02:05:58;38.23;31.28;48.78;;
67900;Laerm;54700;51.796;10.956;2023-04-25T02:08:26;44.08;31.45;61.62;;
67900;Laerm;54700;51.796;10.956;2023-04-25T02:10:53;55.81;30.99;74.09;;
67900;Laerm;54700;51.796;10.956;2023-04-25T02:13:21;51.53;31.70;68.80;;
67900;Laerm;54700;51.796;10.956;2023-04-25T02:15:48;50.62;31.52;67.57;;
67900;Laerm;54700;51.796;10.956;2023-04-25T02:18:15;52.11;32.55;66.40;;
67900;Laerm;54700;51.796;10.956;2023-04-25T02:20:43;53.44;31.12;70.86;;
67900;Laerm;54700;51.796;10.956;2023-04-25T02:23:10;48.99;32.22;65.24;;
67900;Laerm;54700;51.796;10.956;2023-04-25T02:25:37;54.55;31.43;71.47;;
67900;Laerm;54700;51.796;10.956;2023-04-25T02:28:04;57.23;32.58;71.59;;
67900;Laerm;54700;51.796;10.956;2023-04-25T02:30:35;51.47;31.99;66.78;;
67900;Laerm;54700;51.796;10.956;2023-04-25T02:33:02;51.96;31.78;67.63;;
67900;Laerm;54700;51.796;10.956;2023-04-25T02:35:32;51.26;31.98;65.27;;
67900;Laerm;54700;51.796;10.956;2023-04-25T02:37:59;53.60;30.24;69.39;;
67900;Laerm;54700;51.796;10.956;2023-04-25T02:40:26;49.88;31.27;66.14;;
67900;Laerm;54700;51.796;10.956;2023-04-25T02:42:53;57.92;32.30;71.20;;
67900;Laerm;54700;51.796;10.956;2023-04-25T02:45:22;56.51;30.55;70.38;;
67900;Laerm;54700;51.796;10.956;2023-04-25T02:47:51;55.29;31.03;70.13;;
67900;Laerm;54700;51.796;10.956;2023-04-25T02:50:17;54.28;31.76;68.98;;
67900;Laerm;54700;51.796;10.956;2023-04-25T02:52:47;57.32;31.48;71.89;;
67900;Laerm;54700;51.796;10.956;2023-04-25T02:55:17;53.64;31.77;69.78;;
67900;Laerm;54700;51.796;10.956;2023-04-25T02:57:45;50.25;32.66;64.59;;
67900;Laerm;54700;51.796;10.956;2023-04-25T03:00:16;56.97;39.29;72.83;;
67900;Laerm;54700;51.796;10.956;2023-04-25T03:02:43;55.44;32.55;68.74;;
67900;Laerm;54700;51.796;10.956;2023-04-25T03:05:11;56.99;34.66;68.92;;
67900;Laerm;54700;51.796;10.956;2023-04-25T03:07:38;56.92;34.76;70.40;;
67900;Laerm;54700;51.796;10.956;2023-04-25T03:10:07;53.65;34.87;66.21;;
67900;Laerm;54700;51.796;10.956;2023-04-25T03:12:44;52.84;35.39;67.31;;
67900;Laerm;54700;51.796;10.956;2023-04-25T03:15:11;55.72;36.43;67.10;;
67900;Laerm;54700;51.796;10.956;2023-04-25T03:17:39;54.24;36.94;69.18;;
67900;Laerm;54700;51.796;10.956;2023-04-25T03:20:10;57.54;37.22;72.76;;
67900;Laerm;54700;51.796;10.956;2023-04-25T03:22:38;57.71;38.63;69.09;;
67900;Laerm;54700;51.796;10.956;2023-04-25T03:25:06;57.41;38.85;69.29;;
67900;Laerm;54700;51.796;10.956;2023-04-25T03:27:33;59.41;37.46;70.41;;
67900;Laerm;54700;51.796;10.956;2023-04-25T03:30:00;59.42;38.01;69.78;;
67900;Laerm;54700;51.796;10.956;2023-04-25T03:32:28;59.22;38.07;73.80;;
67900;Laerm;54700;51.796;10.956;2023-04-25T03:34:55;57.16;38.11;68.92;;
67900;Laerm;54700;51.796;10.956;2023-04-25T03:37:22;57.97;37.31;69.88;;
67900;Laerm;54700;51.796;10.956;2023-04-25T03:39:50;60.09;39.08;71.67;;
67900;Laerm;54700;51.796;10.956;2023-04-25T03:42:17;56.85;38.00;73.43;;
67900;Laerm;54700;51.796;10.956;2023-04-25T03:44:44;60.97;41.43;70.11;;
67900;Laerm;54700;51.796;10.956;2023-04-25T03:47:13;55.72;37.99;70.10;;
67900;Laerm;54700;51.796;10.956;2023-04-25T03:49:44;60.98;41.38;76.24;;
67900;Laerm;54700;51.796;10.956;2023-04-25T03:52:11;63.00;47.77;71.15;;
67900;Laerm;54700;51.796;10.956;2023-04-25T03:54:38;58.15;39.04;69.58;;
67900;Laerm;54700;51.796;10.956;2023-04-25T03:57:07;59.60;39.14;69.23;;
67900;Laerm;54700;51.796;10.956;2023-04-25T03:59:36;62.20;44.50;74.09;;
67900;Laerm;54700;51.796;10.956;2023-04-25T04:02:06;62.45;39.31;74.93;;
67900;Laerm;54700;51.796;10.956;2023-04-25T04:04:33;57.61;37.14;68.82;;
67900;Laerm;54700;51.796;10.956;2023-04-25T04:07:01;60.90;40.84;73.82;;
67900;Laerm;54700;51.796;10.956;2023-04-25T04:09:28;62.75;47.79;72.25;;
67900;Laerm;54700;51.796;10.956;2023-04-25T04:11:55;70.29;41.35;80.97;;
67900;Laerm;54700;51.796;10.956;2023-04-25T04:14:24;58.41;39.23;70.08;;
67900;Laerm;54700;51.796;10.956;2023-04-25T04:16:51;59.73;40.31;68.81;;
67900;Laerm;54700;51.796;10.956;2023-04-25T04:19:18;59.85;37.28;72.01;;
67900;Laerm;54700;51.796;10.956;2023-04-25T04:21:46;60.11;41.31;70.19;;
67900;Laerm;54700;51.796;10.956;2023-04-25T04:24:13;63.08;44.22;71.69;;
67900;Laerm;54700;51.796;10.956;2023-04-25T04:26:40;63.65;44.10;74.88;;
67900;Laerm;54700;51.796;10.956;2023-04-25T04:29:10;62.33;42.98;71.84;;
67900;Laerm;54700;51.796;10.956;2023-04-25T04:31:38;58.97;39.50;68.38;;
67900;Laerm;54700;51.796;10.956;2023-04-25T04:34:05;60.50;44.88;75.41;;
67900;Laerm;54700;51.796;10.956;2023-04-25T04:36:35;69.43;52.24;77.14;;
67900;Laerm;54700;51.796;10.956;2023-04-25T04:39:02;60.72;45.86;69.18;;
67900;Laerm;54700;51.796;10.956;2023-04-25T04:41:29;67.14;39.30;89.77;;
67900;Laerm;54700;51.796;10.956;2023-04-25T04:43:57;63.50;38.15;76.25;;
67900;Laerm;54700;51.796;10.956;2023-04-25T04:46:24;63.86;51.57;73.17;;
67900;Laerm;54700;51.796;10.956;2023-04-25T04:48:52;64.99;46.84;75.91;;
67900;Laerm;54700;51.796;10.956;2023-04-25T04:51:22;63.41;46.02;73.37;;
67900;Laerm;54700;51.796;10.956;2023-04-25T04:54:13;63.70;47.82;75.81;;
67900;Laerm;54700;51.796;10.956;2023-04-25T04:56:52;63.98;51.09;74.89;;
67900;Laerm;54700;51.796;10.956;2023-04-25T04:59:22;63.12;44.54;73.58;;
67900;Laerm;54700;51.796;10.956;2023-04-25T05:02:24;65.24;49.40;77.90;;
67900;Laerm;54700;51.796;10.956;2023-04-25T05:05:03;64.43;49.58;78.24;;
67900;Laerm;54700;51.796;10.956;2023-04-25T05:07:46;64.98;53.84;72.79;;
67900;Laerm;54700;51.796;10.956;2023-04-25T05:11:35;63.97;50.55;79.96;;
67900;Laerm;54700;51.796;10.956;2023-04-25T05:14:07;62.17;43.02;76.01;;
67900;Laerm;54700;51.796;10.956;2023-04-25T05:18:30;66.14;47.24;79.03;;
67900;Laerm;54700;51.796;10.956;2023-04-25T05:20:42;65.12;43.71;77.12;;
67900;Laerm;54700;51.796;10.956;2023-04-25T05:23:20;66.04;51.32;75.92;;
67900;Laerm;54700;51.796;10.956;2023-04-25T05:25:51;64.21;47.41;73.18;;
67900;Laerm;54700;51.796;10.956;2023-04-25T05:28:23;66.27;47.71;73.84;;
67900;Laerm;54700;51.796;10.956;2023-04-25T05:30:58;65.54;46.32;73.34;;
67900;Laerm;54700;51.796;10.956;2023-04-25T05:33:30;65.65;42.66;75.12;;
67900;Laerm;54700;51.796;10.956;2023-04-25T05:36:05;66.51;47.27;79.76;;
67900;Laerm;54700;51.796;10.956;2023-04-25T05:38:35;63.82;44.89;76.53;;
67900;Laerm;54700;51.796;10.956;2023-04-25T05:41:12;65.33;52.23;76.43;;
67900;Laerm;54700;51.796;10.956;2023-04-25T05:43:40;66.65;51.77;73.91;;
67900;Laerm;54700;51.796;10.956;2023-04-25T05:46:13;67.19;49.90;74.56;;
67900;Laerm;54700;51.796;10.956;2023-04-25T05:48:55;65.75;50.80;74.93;;
67900;Laerm;54700;51.796;10.956;2023-04-25T05:51:37;64.97;49.43;73.67;;
67900;Laerm;54700;51.796;10.956;2023-04-25T05:54:33;67.32;53.69;75.66;;
67900;Laerm;54700;51.796;10.956;2023-04-25T05:57:29;67.22;45.84;79.47;;
67900;Laerm;54700;51.796;10.956;2023-04-25T06:00:24;63.91;41.43;77.42;;
67900;Laerm;54700;51.796;10.956;2023-04-25T06:03:07;64.29;40.27;73.11;;
67900;Laerm;54700;51.796;10.956;2023-04-25T06:05:44;62.04;41.30;71.11;;
67900;Laerm;54700;51.796;10.956;2023-04-25T06:08:24;64.29;44.13;73.26;;
67900;Laerm;54700;51.796;10.956;2023-04-25T06:11:06;62.56;41.26;72.93;;
67900;Laerm;54700;51.796;10.956;2023-04-25T06:13:41;62.77;42.95;75.29;;
67900;Laerm;54700;51.796;10.956;2023-04-25T06:16:13;61.76;42.52;69.83;;
67900;Laerm;54700;51.796;10.956;2023-04-25T06:18:50;63.55;37.47;73.87;;
67900;Laerm;54700;51.796;10.956;2023-04-25T06:21:34;62.59;39.63;71.24;;
67900;Laerm;54700;51.796;10.956;2023-04-25T06:28:28;63.06;40.50;72.44;;
67900;Laerm;54700;51.796;10.956;2023-04-25T06:33:22;63.26;39.79;77.98;;
67900;Laerm;54700;51.796;10.956;2023-04-25T06:34:03;63.60;43.30;77.85;;
67900;Laerm;54700;51.796;10.956;2023-04-25T06:37:04;62.87;41.01;74.87;;
67900;Laerm;54700;51.796;10.956;2023-04-25T06:40:15;62.53;37.51;71.80;;
67900;Laerm;54700;51.796;10.956;2023-04-25T06:53:13;64.64;46.61;72.83;;
67900;Laerm;54700;51.796;10.956;2023-04-25T06:57:52;63.00;43.25;74.96;;
67900;Laerm;54700;51.796;10.956;2023-04-25T07:02:58;64.29;45.55;78.61;;
67900;Laerm;54700;51.796;10.956;2023-04-25T07:05:46;61.78;40.51;72.06;;
67900;Laerm;54700;51.796;10.956;2023-04-25T07:08:44;63.60;46.71;70.87;;
67900;Laerm;54700;51.796;10.956;2023-04-25T08:35:32;62.83;48.24;71.93;;
67900;Laerm;54700;51.796;10.956;2023-04-25T08:38:19;64.48;52.00;76.26;;
67900;Laerm;54700;51.796;10.956;2023-04-25T08:40:49;64.96;52.98;73.21;;
67900;Laerm;54700;51.796;10.956;2023-04-25T08:43:19;63.70;45.61;71.89;;
67900;Laerm;54700;51.796;10.956;2023-04-25T08:46:00;66.96;48.22;81.61;;
67900;Laerm;54700;51.796;10.956;2023-04-25T08:48:34;63.35;46.59;72.00;;
67900;Laerm;54700;51.796;10.956;2023-04-25T08:53:53;63.43;45.88;74.63;;
67900;Laerm;54700;51.796;10.956;2023-04-25T08:56:25;63.45;44.78;73.72;;
67900;Laerm;54700;51.796;10.956;2023-04-25T09:03:21;63.01;44.30;74.17;;
67900;Laerm;54700;51.796;10.956;2023-04-25T09:05:38;63.81;49.35;78.09;;
67900;Laerm;54700;51.796;10.956;2023-04-25T09:12:19;62.06;42.53;71.04;;
67900;Laerm;54700;51.796;10.956;2023-04-25T09:15:27;62.33;46.52;70.68;;
67900;Laerm;54700;51.796;10.956;2023-04-25T09:18:03;62.61;45.70;71.37;;
67900;Laerm;54700;51.796;10.956;2023-04-25T09:20:53;64.58;48.46;79.73;;
67900;Laerm;54700;51.796;10.956;2023-04-25T09:23:54;62.63;44.65;73.06;;
67900;Laerm;54700;51.796;10.956;2023-04-25T09:30:02;64.12;47.79;72.14;;
67900;Laerm;54700;51.796;10.956;2023-04-25T09:32:43;65.88;49.18;78.45;;
67900;Laerm;54700;51.796;10.956;2023-04-25T09:36:04;62.59;48.06;73.24;;
67900;Laerm;54700;51.796;10.956;2023-04-25T09:38:55;62.22;46.85;72.87;;
67900;Laerm;54700;51.796;10.956;2023-04-25T09:41:41;62.84;45.60;72.36;;
67900;Laerm;54700;51.796;10.956;2023-04-25T09:44:28;64.14;45.69;71.15;;
67900;Laerm;54700;51.796;10.956;2023-04-25T09:47:25;63.08;46.78;70.58;;
67900;Laerm;54700;51.796;10.956;2023-04-25T09:49:57;62.78;46.99;74.24;;
67900;Laerm;54700;51.796;10.956;2023-04-25T09:52:38;62.98;47.43;77.31;;
67900;Laerm;54700;51.796;10.956;2023-04-25T09:55:21;64.63;52.14;73.88;;
67900;Laerm;54700;51.796;10.956;2023-04-25T09:58:07;62.98;43.81;73.30;;
67900;Laerm;54700;51.796;10.956;2023-04-25T10:01:06;63.71;46.36;73.82;;
67900;Laerm;54700;51.796;10.956;2023-04-25T10:03:50;63.27;44.99;72.78;;
67900;Laerm;54700;51.796;10.956;2023-04-25T10:07:20;62.22;43.27;71.79;;
67900;Laerm;54700;51.796;10.956;2023-04-25T12:16:24;63.13;46.07;73.50;;
67900;Laerm;54700;51.796;10.956;2023-04-25T12:18:57;61.87;41.43;73.28;;
67900;Laerm;54700;51.796;10.956;2023-04-25T12:21:47;61.78;44.47;71.09;;
67900;Laerm;54700;51.796;10.956;2023-04-25T12:24:16;62.46;45.54;70.18;;
67900;Laerm;54700;51.796;10.956;2023-04-25T12:26:49;61.88;41.35;69.24;;
67900;Laerm;54700;51.796;10.956;2023-04-25T12:29:21;63.33;45.64;70.41;;
67900;Laerm;54700;51.796;10.956;2023-04-25T12:32:04;63.46;43.62;71.81;;
67900;Laerm;54700;51.796;10.956;2023-04-25T12:34:37;64.45;48.76;75.53;;
67900;Laerm;54700;51.796;10.956;2023-04-25T12:37:04;63.42;41.36;75.13;;
67900;Laerm;54700;51.796;10.956;2023-04-25T12:39:32;63.41;44.62;73.16;;
67900;Laerm;54700;51.796;10.956;2023-04-25T12:42:06;62.34;43.25;73.74;;
67900;Laerm;54700;51.796;10.956;2023-04-25T12:44:39;62.68;52.86;71.45;;
67900;Laerm;54700;51.796;10.956;2023-04-25T12:47:07;62.55;48.48;71.31;;
67900;Laerm;54700;51.796;10.956;2023-04-25T12:49:38;63.97;49.00;71.81;;
67900;Laerm;54700;51.796;10.956;2023-04-25T12:52:05;61.60;41.81;75.76;;
67900;Laerm;54700;51.796;10.956;2023-04-25T12:54:37;64.15;46.07;75.90;;
67900;Laerm;54700;51.796;10.956;2023-04-25T12:57:07;64.03;51.35;72.81;;
67900;Laerm;54700;51.796;10.956;2023-04-25T12:59:40;64.08;48.59;74.05;;
67900;Laerm;54700;51.796;10.956;2023-04-25T13:02:14;62.83;47.16;76.99;;
67900;Laerm;54700;51.796;10.956;2023-04-25T13:04:41;64.57;50.90;74.55;;
67900;Laerm;54700;51.796;10.956;2023-04-25T13:07:20;64.12;47.70;74.43;;
67900;Laerm;54700;51.796;10.956;2023-04-25T13:09:50;63.92;49.99;71.77;;
67900;Laerm;54700;51.796;10.956;2023-04-25T13:12:17;63.70;46.77;73.21;;
67900;Laerm;54700;51.796;10.956;2023-04-25T13:14:45;66.48;47.22;81.58;;
67900;Laerm;54700;51.796;10.956;2023-04-25T13:17:17;63.84;44.80;72.99;;
67900;Laerm;54700;51.796;10.956;2023-04-25T13:19:44;62.66;40.75;75.87;;
67900;Laerm;54700;51.796;10.956;2023-04-25T13:22:12;64.32;45.90;74.56;;
67900;Laerm;54700;51.796;10.956;2023-04-25T13:24:43;63.95;41.44;84.43;;
67900;Laerm;54700;51.796;10.956;2023-04-25T13:27:10;62.91;46.81;70.95;;
67900;Laerm;54700;51.796;10.956;2023-04-25T13:29:41;64.35;51.92;73.58;;
67900;Laerm;54700;51.796;10.956;2023-04-25T13:32:19;63.11;47.41;73.24;;
67900;Laerm;54700;51.796;10.956;2023-04-25T13:34:51;64.09;44.72;77.63;;
67900;Laerm;54700;51.796;10.956;2023-04-25T13:37:38;63.39;48.78;70.65;;
67900;Laerm;54700;51.796;10.956;2023-04-25T13:40:17;63.03;45.35;71.52;;
67900;Laerm;54700;51.796;10.956;2023-04-25T13:42:44;63.60;45.32;71.36;;
67900;Laerm;54700;51.796;10.956;2023-04-25T13:45:25;63.24;45.56;71.04;;
67900;Laerm;54700;51.796;10.956;2023-04-25T13:47:54;64.60;52.27;72.70;;
67900;Laerm;54700;51.796;10.956;2023-04-25T13:50:21;64.08;44.73;72.71;;
67900;Laerm;54700;51.796;10.956;2023-04-25T13:52:51;63.52;45.59;70.69;;
67900;Laerm;54700;51.796;10.956;2023-04-25T13:55:19;64.39;53.09;72.51;;
67900;Laerm;54700;51.796;10.956;2023-04-25T13:57:46;65.00;47.05;73.56;;
67900;Laerm;54700;51.796;10.956;2023-04-25T14:00:17;63.33;44.71;72.04;;
67900;Laerm;54700;51.796;10.956;2023-04-25T14:02:44;63.73;50.00;74.18;;
67900;Laerm;54700;51.796;10.956;2023-04-25T14:05:13;64.51;51.83;77.74;;
67900;Laerm;54700;51.796;10.956;2023-04-25T14:07:41;64.75;49.61;70.66;;
67900;Laerm;54700;51.796;10.956;2023-04-25T14:10:09;63.07;45.08;70.59;;
67900;Laerm;54700;51.796;10.956;2023-04-25T14:12:36;65.57;49.48;76.61;;
67900;Laerm;54700;51.796;10.956;2023-04-25T14:15:07;62.95;49.73;70.44;;
67900;Laerm;54700;51.796;10.956;2023-04-25T14:17:34;63.87;45.64;72.55;;
67900;Laerm;54700;51.796;10.956;2023-04-25T14:20:01;63.47;47.15;77.17;;
67900;Laerm;54700;51.796;10.956;2023-04-25T14:22:32;63.37;46.38;71.46;;
67900;Laerm;54700;51.796;10.956;2023-04-25T14:25:00;62.73;44.31;75.13;;
67900;Laerm;54700;51.796;10.956;2023-04-25T14:27:27;65.19;51.38;76.37;;
67900;Laerm;54700;51.796;10.956;2023-04-25T14:29:54;63.87;47.65;74.61;;
67900;Laerm;54700;51.796;10.956;2023-04-25T14:32:22;64.47;44.22;74.38;;
67900;Laerm;54700;51.796;10.956;2023-04-25T14:34:51;64.19;40.22;75.47;;
67900;Laerm;54700;51.796;10.956;2023-04-25T14:37:21;62.04;42.63;70.03;;
67900;Laerm;54700;51.796;10.956;2023-04-25T14:39:50;62.28;42.60;73.87;;
67900;Laerm;54700;51.796;10.956;2023-04-25T14:42:19;64.50;42.20;79.81;;
67900;Laerm;54700;51.796;10.956;2023-04-25T14:44:47;63.79;45.16;72.49;;
67900;Laerm;54700;51.796;10.956;2023-04-25T14:47:14;65.46;41.36;83.89;;
67900;Laerm;54700;51.796;10.956;2023-04-25T14:49:42;63.49;46.89;70.04;;
67900;Laerm;54700;51.796;10.956;2023-04-25T14:52:12;65.04;44.82;72.40;;
67900;Laerm;54700;51.796;10.956;2023-04-25T14:54:39;62.95;45.03;71.57;;
67900;Laerm;54700;51.796;10.956;2023-04-25T14:57:08;63.76;51.27;71.50;;
67900;Laerm;54700;51.796;10.956;2023-04-25T14:59:47;65.98;42.32;88.73;;
67900;Laerm;54700;51.796;10.956;2023-04-25T15:02:14;63.81;45.94;72.68;;
67900;Laerm;54700;51.796;10.956;2023-04-25T15:04:41;63.55;49.29;74.20;;
67900;Laerm;54700;51.796;10.956;2023-04-25T15:07:09;64.66;48.45;74.15;;
67900;Laerm;54700;51.796;10.956;2023-04-25T15:09:39;63.20;44.75;72.43;;
67900;Laerm;54700;51.796;10.956;2023-04-25T15:12:11;66.62;48.75;87.56;;
67900;Laerm;54700;51.796;10.956;2023-04-25T15:14:41;66.35;45.98;81.28;;
67900;Laerm;54700;51.796;10.956;2023-04-25T15:17:08;64.56;49.48;76.06;;
67900;Laerm;54700;51.796;10.956;2023-04-25T15:19:35;63.84;43.53;78.84;;
67900;Laerm;54700;51.796;10.956;2023-04-25T15:22:03;62.81;44.78;70.91;;
67900;Laerm;54700;51.796;10.956;2023-04-25T15:24:32;64.24;43.65;72.26;;
67900;Laerm;54700;51.796;10.956;2023-04-25T15:26:59;60.36;41.70;70.03;;
67900;Laerm;54700;51.796;10.956;2023-04-25T15:29:28;63.33;45.30;72.32;;
67900;Laerm;54700;51.796;10.956;2023-04-25T15:31:55;62.76;43.45;73.52;;
67900;Laerm;54700;51.796;10.956;2023-04-25T15:34:25;62.01;44.17;76.43;;
67900;Laerm;54700;51.796;10.956;2023-04-25T15:36:52;63.82;49.18;76.31;;
67900;Laerm;54700;51.796;10.956;2023-04-25T15:39:24;64.16;48.40;71.90;;
67900;Laerm;54700;51.796;10.956;2023-04-25T15:41:54;60.66;41.45;69.67;;
67900;Laerm;54700;51.796;10.956;2023-04-25T15:44:21;62.47;40.73;72.25;;
67900;Laerm;54700;51.796;10.956;2023-04-25T15:46:50;63.75;40.56;75.00;;
67900;Laerm;54700;51.796;10.956;2023-04-25T15:49:17;62.47;45.33;71.98;;
67900;Laerm;54700;51.796;10.956;2023-04-25T15:51:48;64.30;41.29;76.08;;
67900;Laerm;54700;51.796;10.956;2023-04-25T15:54:15;61.80;43.07;72.73;;
67900;Laerm;54700;51.796;10.956;2023-04-25T15:56:46;62.16;43.68;73.21;;
67900;Laerm;54700;51.796;10.956;2023-04-25T15:59:13;62.85;41.09;71.31;;
67900;Laerm;54700;51.796;10.956;2023-04-25T16:01:50;62.11;42.55;71.07;;
67900;Laerm;54700;51.796;10.956;2023-04-25T16:04:19;62.91;48.87;71.45;;
67900;Laerm;54700;51.796;10.956;2023-04-25T16:06:47;62.72;41.53;72.29;;
67900;Laerm;54700;51.796;10.956;2023-04-25T16:09:20;60.19;39.16;69.51;;
67900;Laerm;54700;51.796;10.956;2023-04-25T16:11:49;61.05;39.86;70.11;;
67900;Laerm;54700;51.796;10.956;2023-04-25T16:14:16;62.13;36.79;70.36;;
67900;Laerm;54700;51.796;10.956;2023-04-25T16:16:44;62.00;43.16;70.97;;
67900;Laerm;54700;51.796;10.956;2023-04-25T16:19:14;61.61;40.89;73.07;;
67900;Laerm;54700;51.796;10.956;2023-04-25T16:21:43;61.56;42.47;70.72;;
67900;Laerm;54700;51.796;10.956;2023-04-25T16:24:12;62.95;39.89;69.63;;
67900;Laerm;54700;51.796;10.956;2023-04-25T16:26:44;63.71;42.10;87.12;;
67900;Laerm;54700;51.796;10.956;2023-04-25T16:29:11;63.86;46.00;79.84;;
67900;Laerm;54700;51.796;10.956;2023-04-25T16:31:39;63.34;47.10;82.64;;
67900;Laerm;54700;51.796;10.956;2023-04-25T16:34:08;60.96;43.47;71.72;;
67900;Laerm;54700;51.796;10.956;2023-04-25T16:36:35;59.74;39.86;71.48;;
67900;Laerm;54700;51.796;10.956;2023-04-25T16:39:07;59.19;40.58;68.29;;
67900;Laerm;54700;51.796;10.956;2023-04-25T16:41:38;61.11;40.70;72.24;;
67900;Laerm;54700;51.796;10.956;2023-04-25T16:44:08;61.01;41.95;70.59;;
67900;Laerm;54700;51.796;10.956;2023-04-25T16:46:36;63.91;44.72;71.13;;
67900;Laerm;54700;51.796;10.956;2023-04-25T16:49:03;61.98;41.38;86.57;;
67900;Laerm;54700;51.796;10.956;2023-04-25T16:51:31;62.21;40.33;75.70;;
67900;Laerm;54700;51.796;10.956;2023-04-25T16:53:58;62.43;38.66;70.32;;
67900;Laerm;54700;51.796;10.956;2023-04-25T16:56:30;60.46;36.99;70.76;;
67900;Laerm;54700;51.796;10.956;2023-04-25T16:58:57;62.76;42.23;76.64;;
67900;Laerm;54700;51.796;10.956;2023-04-25T17:01:33;62.70;40.20;72.37;;
67900;Laerm;54700;51.796;10.956;2023-04-25T17:04:01;61.44;43.71;70.62;;
67900;Laerm;54700;51.796;10.956;2023-04-25T17:06:30;61.98;38.10;70.96;;
67900;Laerm;54700;51.796;10.956;2023-04-25T17:09:00;62.47;44.59;71.95;;
67900;Laerm;54700;51.796;10.956;2023-04-25T17:11:28;61.23;40.91;70.20;;
67900;Laerm;54700;51.796;10.956;2023-04-25T17:13:56;61.02;38.11;69.85;;
67900;Laerm;54700;51.796;10.956;2023-04-25T17:16:33;59.15;39.07;72.88;;
67900;Laerm;54700;51.796;10.956;2023-04-25T17:19:01;58.51;39.07;69.32;;
67900;Laerm;54700;51.796;10.956;2023-04-25T17:21:28;60.93;38.21;73.46;;
67900;Laerm;54700;51.796;10.956;2023-04-25T17:23:58;59.79;36.38;70.68;;
67900;Laerm;54700;51.796;10.956;2023-04-25T17:26:26;62.96;42.86;74.46;;
67900;Laerm;54700;51.796;10.956;2023-04-25T17:28:53;62.01;40.91;71.53;;
67900;Laerm;54700;51.796;10.956;2023-04-25T17:31:23;58.58;35.61;71.56;;
67900;Laerm;54700;51.796;10.956;2023-04-25T17:33:50;61.67;41.23;71.24;;
67900;Laerm;54700;51.796;10.956;2023-04-25T17:36:17;51.94;36.93;68.55;;
67900;Laerm;54700;51.796;10.956;2023-04-25T17:38:47;60.14;40.83;70.30;;
67900;Laerm;54700;51.796;10.956;2023-04-25T17:41:21;60.66;36.57;70.75;;
67900;Laerm;54700;51.796;10.956;2023-04-25T17:43:49;59.68;35.27;70.52;;
67900;Laerm;54700;51.796;10.956;2023-04-25T17:46:20;57.87;35.15;68.81;;
67900;Laerm;54700;51.796;10.956;2023-04-25T17:48:52;59.67;34.77;70.18;;
67900;Laerm;54700;51.796;10.956;2023-04-25T17:51:19;60.95;37.61;71.16;;
67900;Laerm;54700;51.796;10.956;2023-04-25T17:53:49;58.61;36.62;67.62;;
67900;Laerm;54700;51.796;10.956;2023-04-25T17:56:16;57.48;36.35;74.34;;
67900;Laerm;54700;51.796;10.956;2023-04-25T17:58:43;60.56;36.61;73.43;;
67900;Laerm;54700;51.796;10.956;2023-04-25T18:01:11;59.68;37.22;71.54;;
67900;Laerm;54700;51.796;10.956;2023-04-25T18:03:41;64.85;33.61;82.21;;
67900;Laerm;54700;51.796;10.956;2023-04-25T18:06:11;52.77;32.56;66.21;;